createdAt,value
2023-11-07T00:00:12.516Z,1.90
2023-11-07T00:03:15.882Z,1.70
2023-11-07T00:06:17.958Z,2.03
2023-11-07T00:09:20.244Z,1.60
2023-11-07T00:12:22.649Z,1.83
2023-11-07T00:15:26.736Z,1.57
2023-11-07T00:18:37.434Z,1.73
2023-11-07T00:21:43.335Z,1.90
2023-11-07T00:24:45.384Z,1.90
2023-11-07T00:27:47.743Z,1.70
2023-11-07T00:30:53.546Z,1.70
2023-11-07T00:33:56.269Z,1.90
2023-11-07T00:37:05.776Z,1.57
2023-11-07T00:40:11.702Z,2.10
2023-11-07T00:43:14.124Z,2.70
2023-11-07T00:46:16.202Z,2.00
2023-11-07T00:49:19.685Z,1.70
2023-11-07T00:52:24.300Z,1.97
2023-11-07T00:55:26.872Z,1.83
2023-11-07T00:58:30.700Z,2.17
2023-11-07T01:01:45.741Z,2.10
2023-11-07T01:04:49.742Z,1.93
2023-11-07T01:07:53.259Z,2.10
2023-11-07T01:10:59.181Z,1.90
2023-11-07T01:14:02.060Z,1.77
2023-11-07T01:17:04.648Z,1.60
2023-11-07T01:20:21.143Z,1.70
2023-11-07T01:23:23.049Z,2.17
2023-11-07T01:26:33.116Z,1.60
2023-11-07T01:29:37.259Z,1.97
2023-11-07T01:32:45.615Z,1.80
2023-11-07T01:35:48.031Z,1.80
2023-11-07T01:38:52.572Z,2.03
2023-11-07T01:41:55.614Z,1.83
2023-11-07T01:44:57.826Z,2.07
2023-11-07T01:48:00.282Z,1.50
2023-11-07T01:51:02.753Z,1.63
2023-11-07T01:54:05.422Z,2.13
2023-11-07T01:57:09.658Z,1.70
2023-11-07T02:00:15.292Z,2.23
2023-11-07T02:03:23.533Z,2.60
2023-11-07T02:06:26.026Z,1.80
2023-11-07T02:09:47.180Z,1.77
2023-11-07T02:12:50.701Z,2.30
2023-11-07T02:15:55.980Z,1.53
2023-11-07T02:18:58.621Z,1.73
2023-11-07T02:22:23.011Z,1.77
2023-11-07T02:25:30.849Z,2.27
2023-11-07T02:28:34.227Z,2.33
2023-11-07T02:31:39.180Z,2.20
2023-11-07T02:34:41.573Z,2.30
2023-11-07T02:37:50.217Z,3.10
2023-11-07T02:40:53.889Z,2.40
2023-11-07T02:44:12.139Z,2.40
2023-11-07T02:47:15.840Z,2.07
2023-11-07T02:50:22.549Z,2.00
2023-11-07T02:53:28.462Z,2.37
2023-11-07T02:56:33.442Z,2.00
2023-11-07T02:59:40.468Z,2.27
2023-11-07T03:02:44.909Z,1.90
2023-11-07T03:05:48.180Z,2.33
2023-11-07T03:09:06.062Z,2.10
2023-11-07T03:12:15.527Z,1.90
2023-11-07T03:15:17.826Z,2.10
2023-11-07T03:18:21.466Z,2.20
2023-11-07T03:21:24.784Z,1.77
2023-11-07T03:24:30.714Z,1.80
2023-11-07T03:27:34.220Z,2.07
2023-11-07T03:30:39.179Z,2.30
2023-11-07T03:33:41.520Z,2.03
2023-11-07T03:36:47.499Z,2.20
2023-11-07T03:39:51.181Z,2.07
2023-11-07T03:42:55.362Z,2.13
2023-11-07T03:45:58.379Z,2.00
2023-11-07T03:49:08.940Z,2.33
2023-11-07T03:52:13.579Z,2.40
2023-11-07T03:55:16.460Z,1.70
2023-11-07T03:58:25.262Z,2.27
2023-11-07T04:01:39.023Z,1.60
2023-11-07T04:04:48.309Z,2.20
2023-11-07T04:07:51.817Z,2.33
2023-11-07T04:10:56.627Z,2.37
2023-11-07T04:14:00.300Z,2.10
2023-11-07T04:17:08.940Z,2.47
2023-11-07T04:20:12.949Z,2.47
2023-11-07T04:23:28.459Z,2.93
2023-11-07T04:26:33.307Z,3.70
2023-11-07T04:29:39.200Z,2.73
2023-11-07T04:32:42.127Z,2.77
2023-11-07T04:35:47.852Z,2.83
2023-11-07T04:38:51.855Z,3.30
2023-11-07T04:42:03.368Z,3.17
2023-11-07T04:45:32.703Z,3.33
2023-11-07T04:48:36.495Z,3.10
2023-11-07T04:51:45.100Z,2.53
2023-11-07T04:54:48.620Z,5.27
2023-11-07T04:57:54.256Z,4.17
2023-11-07T05:00:56.639Z,3.73
2023-11-07T05:03:59.775Z,4.80
2023-11-07T05:07:03.346Z,3.40
2023-11-07T05:10:11.482Z,3.90
2023-11-07T05:13:15.838Z,3.90
2023-11-07T05:16:18.550Z,3.03
2023-11-07T05:19:24.244Z,3.70
2023-11-07T05:22:27.034Z,3.53
2023-11-07T05:25:29.753Z,3.43
2023-11-07T05:28:40.314Z,4.10
2023-11-07T05:31:44.155Z,4.80
2023-11-07T05:34:52.955Z,5.77
2023-11-07T05:37:57.754Z,5.33
2023-11-07T05:41:06.233Z,5.00
2023-11-07T05:44:08.634Z,5.20
2023-11-07T05:47:11.398Z,5.00
2023-11-07T05:50:14.134Z,5.53
2023-11-07T05:53:16.955Z,5.50
2023-11-07T05:56:21.116Z,5.27
2023-11-07T05:59:25.746Z,4.23
2023-11-07T06:02:30.366Z,4.10
2023-11-07T06:05:33.106Z,5.00
2023-11-07T06:08:37.005Z,4.87
2023-11-07T06:11:41.527Z,4.70
2023-11-07T06:14:46.085Z,4.30
2023-11-07T06:17:49.812Z,3.50
2023-11-07T06:20:52.794Z,3.53
2023-11-07T06:23:55.410Z,3.40
2023-11-07T06:26:57.683Z,4.90
2023-11-07T06:30:00.503Z,4.80
2023-11-07T06:33:04.255Z,3.50
2023-11-07T06:36:08.331Z,3.97
2023-11-07T06:39:12.052Z,5.67
2023-11-07T06:42:16.061Z,6.03
2023-11-07T06:45:23.652Z,5.00
2023-11-07T06:48:27.887Z,6.13
2023-11-07T06:51:40.147Z,5.03
2023-11-07T06:54:42.699Z,7.73
2023-11-07T06:57:44.714Z,6.73
2023-11-07T07:01:16.463Z,8.50
2023-11-07T07:04:19.248Z,6.20
2023-11-07T07:07:22.387Z,6.13
2023-11-07T07:10:26.750Z,8.07
2023-11-07T07:13:30.238Z,6.07
2023-11-07T07:16:33.834Z,6.63
2023-11-07T07:19:55.503Z,11.23
2023-11-07T07:22:59.036Z,4.37
2023-11-07T07:26:10.222Z,5.33
2023-11-07T07:29:18.051Z,7.77
2023-11-07T07:32:30.573Z,5.70
2023-11-07T07:35:34.377Z,5.27
2023-11-07T07:38:36.977Z,4.57
2023-11-07T07:42:12.345Z,4.50
2023-11-07T07:45:15.056Z,5.00
2023-11-07T07:48:19.207Z,5.20
2023-11-07T07:51:21.928Z,4.90
2023-11-07T07:54:43.365Z,5.18
2023-11-07T07:57:51.512Z,5.15
2023-11-07T08:00:54.222Z,4.45
2023-11-07T08:03:58.162Z,4.63
2023-11-07T08:07:03.659Z,4.57
2023-11-07T08:10:18.220Z,6.55
2023-11-07T08:13:21.429Z,4.55
2023-11-07T08:16:24.150Z,4.57
2023-11-07T08:19:26.572Z,4.65
2023-11-07T08:22:29.260Z,4.70
2023-11-07T08:25:31.989Z,5.25
2023-11-07T08:28:37.738Z,17.40
2023-11-07T08:31:42.060Z,10.18
2023-11-07T08:35:07.990Z,3.38
2023-11-07T08:38:16.299Z,13.95
2023-11-07T08:41:19.071Z,6.20
2023-11-07T08:44:50.400Z,3.60
2023-11-07T08:48:20.514Z,14.30
2023-11-07T08:51:23.661Z,38.45
2023-11-07T08:54:26.219Z,29.50
2023-11-07T08:57:30.222Z,8.70
2023-11-07T09:00:34.212Z,4.53
2023-11-07T09:03:38.110Z,11.50
2023-11-07T09:06:41.824Z,33.63
2023-11-07T09:10:12.780Z,34.45
2023-11-07T09:13:15.982Z,1.90
2023-11-07T09:16:19.820Z,5.35
2023-11-07T09:19:22.176Z,2.83
2023-11-07T09:22:26.868Z,1.70
2023-11-07T09:25:29.429Z,1.80
2023-11-07T09:28:31.884Z,1.75
2023-11-07T09:31:36.461Z,1.58
2023-11-07T09:34:47.820Z,1.75
2023-11-07T09:38:17.107Z,1.83
2023-11-07T09:41:20.540Z,1.80
2023-11-07T09:44:24.298Z,1.60
2023-11-07T09:47:30.446Z,2.23
2023-11-07T09:50:35.664Z,1.60
2023-11-07T09:53:41.580Z,1.73
2023-11-07T09:56:45.778Z,1.70
2023-11-07T09:59:56.674Z,2.00
2023-11-07T10:03:00.947Z,1.20
2023-11-07T10:06:04.024Z,1.60
2023-11-07T10:09:19.112Z,1.40
2023-11-07T10:12:23.371Z,1.50
2023-11-07T10:15:28.863Z,2.40
2023-11-07T10:18:46.334Z,2.07
2023-11-07T10:21:52.976Z,1.70
2023-11-07T10:25:00.939Z,1.50
2023-11-07T10:28:11.527Z,2.23
2023-11-07T10:31:25.105Z,1.77
2023-11-07T10:34:28.796Z,2.13
2023-11-07T10:37:38.226Z,1.83
2023-11-07T10:40:45.911Z,2.10
2023-11-07T10:44:16.290Z,2.17
2023-11-07T10:47:22.224Z,2.17
2023-11-07T10:50:27.511Z,1.87
2023-11-07T10:53:35.181Z,2.00
2023-11-07T10:56:42.060Z,2.00
2023-11-07T10:59:47.220Z,2.07
2023-11-07T11:02:54.237Z,1.93
2023-11-07T11:05:58.132Z,1.87
2023-11-07T11:09:08.335Z,2.43
2023-11-07T11:12:13.764Z,1.93
2023-11-07T11:15:20.019Z,2.00
2023-11-07T11:18:33.119Z,2.40
2023-11-07T11:21:53.009Z,1.33
2023-11-07T11:25:18.250Z,1.97
2023-11-07T11:29:01.671Z,1.83
2023-11-07T11:32:25.110Z,2.07
2023-11-07T11:35:32.944Z,1.93
2023-11-07T11:38:40.164Z,2.07
2023-11-07T11:42:14.245Z,2.03
2023-11-07T11:45:40.407Z,1.80
2023-11-07T11:48:53.473Z,2.17
2023-11-07T11:51:58.913Z,3.17
2023-11-07T11:55:09.065Z,2.40
2023-11-07T11:58:17.723Z,2.10
2023-11-07T12:01:22.751Z,2.60
2023-11-07T12:04:26.746Z,1.93
2023-11-07T12:07:37.768Z,2.10
2023-11-07T12:10:55.828Z,2.23
2023-11-07T12:14:02.218Z,1.70
2023-11-07T12:17:05.582Z,1.53
2023-11-07T12:20:13.307Z,1.80
2023-11-07T12:23:17.197Z,2.33
2023-11-07T12:26:22.547Z,2.00
2023-11-07T12:29:31.337Z,2.73
2023-11-07T12:32:33.912Z,1.90
2023-11-07T12:35:40.904Z,2.13
2023-11-07T12:38:44.798Z,1.97
2023-11-07T12:41:48.834Z,2.40
2023-11-07T12:44:52.790Z,2.10
2023-11-07T12:47:58.992Z,2.40
2023-11-07T12:51:01.781Z,2.70
2023-11-07T12:54:06.617Z,2.10
2023-11-07T12:57:09.233Z,2.70
2023-11-07T13:00:13.163Z,2.40
2023-11-07T13:03:20.905Z,2.20
2023-11-07T13:06:24.870Z,2.50
2023-11-07T13:09:31.479Z,1.70
2023-11-07T13:12:37.435Z,2.40
2023-11-07T13:15:46.229Z,2.23
2023-11-07T13:18:50.129Z,2.50
2023-11-07T13:21:53.262Z,2.40
2023-11-07T13:24:56.619Z,2.60
2023-11-07T13:28:01.425Z,1.97
2023-11-07T13:31:06.728Z,2.17
2023-11-07T13:34:09.762Z,2.50
2023-11-07T13:37:12.307Z,2.30
2023-11-07T13:40:16.155Z,2.70
2023-11-07T13:43:45.121Z,2.50
2023-11-07T13:46:51.341Z,3.00
2023-11-07T13:49:57.899Z,2.30
2023-11-07T13:53:00.459Z,2.73
2023-11-07T13:56:04.943Z,2.67
2023-11-07T13:59:08.039Z,2.57
2023-11-07T14:02:12.143Z,2.83
2023-11-07T14:05:14.916Z,2.90
2023-11-07T14:08:18.538Z,3.33
2023-11-07T14:11:22.380Z,2.60
2023-11-07T14:14:26.064Z,2.70
2023-11-07T14:17:30.410Z,3.90
2023-11-07T14:20:33.742Z,3.23
2023-11-07T14:23:37.277Z,3.13
2023-11-07T14:26:39.829Z,3.00
2023-11-07T14:30:01.400Z,3.47
2023-11-07T14:33:05.890Z,3.60
2023-11-07T14:36:11.891Z,3.07
2023-11-07T14:39:17.308Z,4.33
2023-11-07T14:42:19.982Z,5.13
2023-11-07T14:45:24.969Z,4.20
2023-11-07T14:48:27.623Z,6.20
2023-11-07T14:51:30.450Z,3.53
2023-11-07T14:54:36.492Z,8.87
2023-11-07T14:57:44.880Z,4.83
2023-11-07T15:00:49.418Z,3.60
2023-11-07T15:03:52.529Z,3.10
2023-11-07T15:06:55.584Z,6.47
2023-11-07T15:09:59.020Z,6.00
2023-11-07T15:13:02.376Z,6.30
2023-11-07T15:16:07.016Z,4.83
2023-11-07T15:19:10.913Z,4.30
2023-11-07T15:22:15.510Z,4.27
2023-11-07T15:25:22.698Z,3.83
2023-11-07T15:28:25.270Z,8.50
2023-11-07T15:31:28.450Z,5.20
2023-11-07T15:34:37.872Z,4.13
2023-11-07T15:37:44.022Z,4.20
2023-11-07T15:40:46.859Z,8.50
2023-11-07T15:43:49.422Z,6.47
2023-11-07T15:46:54.257Z,4.80
2023-11-07T15:49:57.905Z,5.77
2023-11-07T15:53:07.660Z,7.13
2023-11-07T15:56:13.581Z,9.00
2023-11-07T15:59:22.700Z,11.93
2023-11-07T16:02:28.510Z,5.63
2023-11-07T16:05:34.674Z,5.73
2023-11-07T16:08:37.421Z,4.53
2023-11-07T16:11:39.989Z,4.43
2023-11-07T16:14:43.661Z,8.00
2023-11-07T16:17:48.711Z,9.23
2023-11-07T16:20:51.504Z,8.63
2023-11-07T16:23:59.882Z,10.27
2023-11-07T16:27:09.818Z,15.83
2023-11-07T16:30:15.375Z,7.47
2023-11-07T16:33:21.335Z,8.70
2023-11-07T16:36:27.235Z,9.23
2023-11-07T16:39:31.246Z,7.80
2023-11-07T16:42:33.625Z,8.70
2023-11-07T16:45:35.877Z,6.57
2023-11-07T16:48:50.967Z,7.23
2023-11-07T16:52:21.194Z,6.90
2023-11-07T16:55:24.379Z,7.97
2023-11-07T16:58:27.445Z,8.80
2023-11-07T17:01:31.811Z,10.30
2023-11-07T17:04:37.217Z,11.47
2023-11-07T17:07:40.683Z,10.07
2023-11-07T17:10:42.747Z,8.67
2023-11-07T17:13:44.988Z,7.87
2023-11-07T17:16:48.221Z,9.20
2023-11-07T17:19:51.274Z,6.70
2023-11-07T17:22:53.343Z,10.80
2023-11-07T17:25:56.320Z,6.63
2023-11-07T17:28:58.943Z,6.27
2023-11-07T17:32:01.200Z,5.57
2023-11-07T17:35:05.332Z,7.43
2023-11-07T17:38:10.908Z,7.17
2023-11-07T17:41:15.370Z,10.47
2023-11-07T17:44:22.193Z,19.20
2023-11-07T17:47:27.057Z,12.63
2023-11-07T17:50:30.251Z,10.70
2023-11-07T17:53:34.490Z,14.37
2023-11-07T17:56:37.076Z,14.97
2023-11-07T17:59:39.035Z,9.57
2023-11-07T18:02:41.363Z,9.00
2023-11-07T18:05:50.771Z,10.03
2023-11-07T18:08:54.265Z,10.80
2023-11-07T18:11:56.580Z,13.67
2023-11-07T18:14:59.173Z,9.77
2023-11-07T18:18:01.484Z,9.87
2023-11-07T18:21:03.866Z,8.53
2023-11-07T18:24:06.555Z,7.33
2023-11-07T18:27:08.839Z,21.10
2023-11-07T18:30:12.220Z,6.27
2023-11-07T18:33:14.542Z,7.13
2023-11-07T18:36:19.945Z,6.37
2023-11-07T18:39:23.539Z,5.70
2023-11-07T18:42:28.101Z,6.33
2023-11-07T18:45:32.802Z,5.87
2023-11-07T18:48:37.620Z,5.47
2023-11-07T18:51:40.213Z,5.43
2023-11-07T18:54:42.669Z,6.20
2023-11-07T18:57:45.329Z,5.60
2023-11-07T19:00:57.374Z,6.03
2023-11-07T19:03:59.955Z,6.13
2023-11-07T19:07:02.998Z,7.53
2023-11-07T19:10:08.391Z,5.73
2023-11-07T19:13:12.808Z,5.53
2023-11-07T19:16:18.378Z,5.30
2023-11-07T19:19:20.404Z,7.17
2023-11-07T19:22:24.000Z,6.90
2023-11-07T19:25:26.216Z,7.07
2023-11-07T19:28:55.614Z,11.60
2023-11-07T19:32:00.115Z,7.13
2023-11-07T19:35:02.471Z,7.20
2023-11-07T19:38:04.438Z,6.07
2023-11-07T19:41:06.820Z,5.27
2023-11-07T19:44:09.371Z,5.67
2023-11-07T19:47:14.416Z,6.73
2023-11-07T19:50:18.092Z,7.23
2023-11-07T19:53:20.475Z,7.43
2023-11-07T19:56:23.530Z,8.67
2023-11-07T19:59:26.091Z,8.70
2023-11-07T20:02:28.550Z,28.23
2023-11-07T20:05:34.535Z,11.93
2023-11-07T20:08:38.821Z,6.73
2023-11-07T20:11:41.192Z,6.83
2023-11-07T20:14:44.621Z,6.57
2023-11-07T20:17:47.178Z,6.97
2023-11-07T20:20:49.603Z,6.87
2023-11-07T20:23:57.189Z,6.67
2023-11-07T20:26:59.283Z,6.93
2023-11-07T20:30:07.032Z,8.20
2023-11-07T20:33:09.714Z,7.33
2023-11-07T20:36:17.175Z,7.23
2023-11-07T20:39:19.910Z,6.90
2023-11-07T20:42:23.117Z,6.73
2023-11-07T20:45:25.171Z,6.10
2023-11-07T20:48:39.366Z,5.53
2023-11-07T20:51:44.276Z,6.40
2023-11-07T20:54:47.822Z,7.23
